Time;durP1;ratioP1;P1;durP2;ratioP2;P2;SDS_P1;SDS_P2;PMS_P1;PMS_P2;Temp;Humidity;BMP_temperature;BMP_pressure;BME280_temperature;BME280_humidity;BME280_pressure;Samples;Min_cycle;Max_cycle;Signal;HPM_P1;HPM_P2
2023/11/07 00:00:43;;;;;;;0.70;0.40;;;9.00;83.10;;;;;;4980775;28;20102;-65
2023/11/07 00:03:09;;;;;;;0.35;0.30;;;9.00;83.10;;;;;;4980737;28;20034;-65
2023/11/07 00:05:35;;;;;;;0.28;0.28;;;9.00;83.10;;;;;;4980713;28;20062;-65
2023/11/07 00:08:00;;;;;;;0.20;0.20;;;8.90;83.10;;;;;;4980405;28;20069;-65
2023/11/07 00:10:28;;;;;;;0.60;0.40;;;9.00;83.30;;;;;;4980412;28;20062;-66
2023/11/07 00:12:54;;;;;;;1.23;0.38;;;9.00;83.30;;;;;;4981539;28;20042;-65
2023/11/07 00:15:20;;;;;;;1.30;0.28;;;9.00;83.40;;;;;;4980889;28;20035;-65
2023/11/07 00:17:46;;;;;;;0.40;0.30;;;8.90;83.30;;;;;;4981916;28;20037;-65
2023/11/07 00:20:12;;;;;;;0.30;0.30;;;8.90;83.40;;;;;;4981212;28;20039;-65
2023/11/07 00:22:37;;;;;;;0.50;0.40;;;8.90;83.40;;;;;;4979858;28;20129;-65
2023/11/07 00:25:04;;;;;;;0.50;0.50;;;8.90;83.50;;;;;;4981338;28;20034;-65
2023/11/07 00:27:30;;;;;;;1.13;0.32;;;8.80;83.60;;;;;;4980508;28;20557;-65
2023/11/07 00:29:56;;;;;;;1.33;0.40;;;8.90;83.70;;;;;;4980544;28;20055;-65
2023/11/07 00:32:21;;;;;;;0.47;0.40;;;8.80;83.70;;;;;;4962115;28;20089;-65
2023/11/07 00:34:47;;;;;;;0.30;0.30;;;8.80;83.80;;;;;;4980770;28;20022;-65
2023/11/07 00:37:12;;;;;;;0.43;0.43;;;8.80;84.00;;;;;;4980165;28;20405;-65
2023/11/07 00:39:38;;;;;;;0.40;0.40;;;8.80;84.10;;;;;;4980006;28;20061;-65
2023/11/07 00:42:04;;;;;;;0.80;0.30;;;8.80;84.30;;;;;;4963536;28;20279;-65
2023/11/07 00:44:30;;;;;;;0.75;0.40;;;8.80;84.30;;;;;;4979487;28;20035;-65
2023/11/07 00:46:56;;;;;;;0.45;0.40;;;8.80;84.30;;;;;;4981016;28;20118;-65
2023/11/07 00:49:21;;;;;;;0.90;0.40;;;8.70;84.30;;;;;;4979442;28;20039;-65
2023/11/07 00:51:48;;;;;;;1.35;0.40;;;8.70;84.30;;;;;;4980974;28;20035;-65
2023/11/07 00:54:14;;;;;;;1.13;0.50;;;8.70;84.50;;;;;;4980921;28;20486;-65
2023/11/07 00:56:40;;;;;;;1.00;0.50;;;8.70;84.50;;;;;;4979630;28;20580;-65
2023/11/07 00:59:06;;;;;;;0.30;0.30;;;8.70;84.50;;;;;;4979750;28;20039;-65
2023/11/07 01:01:32;;;;;;;0.30;0.30;;;8.70;84.70;;;;;;4980630;28;20046;-65
2023/11/07 01:04:00;;;;;;;0.40;0.30;;;8.70;84.70;;;;;;4980243;28;20054;-65
2023/11/07 01:06:26;;;;;;;0.57;0.28;;;8.60;84.60;;;;;;4978223;28;20442;-65
2023/11/07 01:08:51;;;;;;;0.63;0.30;;;8.60;84.80;;;;;;4980738;28;20057;-65
2023/11/07 01:11:18;;;;;;;0.55;0.35;;;8.60;84.80;;;;;;4981461;28;20035;-65
2023/11/07 01:13:44;;;;;;;0.77;0.32;;;8.60;84.90;;;;;;4962501;28;20073;-65
2023/11/07 01:16:10;;;;;;;0.50;0.35;;;8.60;85.00;;;;;;4979928;28;20549;-65
2023/11/07 01:18:37;;;;;;;0.30;0.30;;;8.60;85.00;;;;;;4979628;28;20043;-65
2023/11/07 01:21:02;;;;;;;0.30;0.30;;;8.60;85.10;;;;;;4979663;28;20576;-65
2023/11/07 01:23:28;;;;;;;0.50;0.40;;;8.60;85.20;;;;;;4979963;28;20348;-66
2023/11/07 01:25:54;;;;;;;0.68;0.43;;;8.60;85.30;;;;;;4980221;28;20027;-64
2023/11/07 01:28:21;;;;;;;1.17;0.38;;;8.60;85.30;;;;;;4960516;28;20042;-65
2023/11/07 01:30:49;;;;;;;0.47;0.40;;;8.60;85.30;;;;;;4979327;28;20042;-65
2023/11/07 01:33:16;;;;;;;0.35;0.35;;;8.50;85.30;;;;;;4980053;28;20045;-65
2023/11/07 01:35:42;;;;;;;0.30;0.30;;;8.50;85.30;;;;;;4979423;28;20418;-65
2023/11/07 01:38:08;;;;;;;2.35;0.40;;;8.50;85.40;;;;;;4979769;28;20045;-65
2023/11/07 01:40:34;;;;;;;1.70;0.50;;;8.50;85.50;;;;;;4961871;28;20038;-65
2023/11/07 01:43:14;;;;;;;1.52;0.40;;;8.50;85.50;;;;;;4980575;28;20513;-65
2023/11/07 01:45:41;;;;;;;0.35;0.35;;;8.50;86.00;;;;;;4979319;28;20041;-65
2023/11/07 01:48:12;;;;;;;1.23;0.30;;;8.50;85.60;;;;;;4979043;28;20049;-65
2023/11/07 01:50:38;;;;;;;0.43;0.30;;;8.40;85.80;;;;;;4979077;28;20039;-65
2023/11/07 01:53:08;;;;;;;0.30;0.30;;;8.40;85.70;;;;;;4979376;28;20031;-65
2023/11/07 01:55:35;;;;;;;1.05;0.45;;;8.40;85.70;;;;;;4978844;28;20045;-65
2023/11/07 01:58:02;;;;;;;0.65;0.30;;;8.40;85.70;;;;;;4979759;28;20030;-65
2023/11/07 02:00:29;;;;;;;0.85;0.22;;;8.40;85.80;;;;;;4980738;28;20033;-65
2023/11/07 02:02:55;;;;;;;0.50;0.40;;;8.40;85.70;;;;;;4984268;28;20034;-65
2023/11/07 02:05:21;;;;;;;0.50;0.25;;;8.40;86.60;;;;;;4978664;28;20383;-65
2023/11/07 02:07:46;;;;;;;0.73;0.30;;;8.40;85.70;;;;;;4977591;28;20041;-65
2023/11/07 02:10:12;;;;;;;0.20;0.20;;;8.40;85.70;;;;;;4978850;28;20077;-65
2023/11/07 02:12:38;;;;;;;0.70;0.25;;;8.40;85.70;;;;;;4978830;28;20042;-65
2023/11/07 02:15:38;;;;;;;0.57;0.30;;;8.40;85.70;;;;;;4979537;28;20582;-65
2023/11/07 02:18:04;;;;;;;0.32;0.30;;;8.40;86.20;;;;;;4930223;28;21923;-66
2023/11/07 02:20:31;;;;;;;0.35;0.30;;;8.40;85.60;;;;;;4978667;28;20624;-65
2023/11/07 02:23:27;;;;;;;0.22;0.20;;;8.40;85.50;;;;;;4978560;28;20570;-65
2023/11/07 02:25:53;;;;;;;1.30;0.30;;;8.40;85.90;;;;;;4978642;28;20031;-65
2023/11/07 02:28:19;;;;;;;1.15;0.30;;;8.40;85.50;;;;;;4978386;28;20061;-65
2023/11/07 02:30:44;;;;;;;0.20;0.20;;;8.40;85.50;;;;;;4977336;28;20170;-65
2023/11/07 02:33:10;;;;;;;0.10;0.10;;;8.40;85.50;;;;;;4979786;28;20043;-65
2023/11/07 02:35:37;;;;;;;0.20;0.20;;;8.40;85.50;;;;;;4977691;28;20026;-65
2023/11/07 02:38:03;;;;;;;0.50;0.22;;;8.40;85.40;;;;;;4977997;28;20030;-65
2023/11/07 02:40:28;;;;;;;0.20;0.20;;;8.40;85.50;;;;;;4977587;28;20045;-65
2023/11/07 02:42:54;;;;;;;0.70;0.20;;;8.40;85.50;;;;;;4978306;28;20080;-65
2023/11/07 02:45:20;;;;;;;0.30;0.20;;;8.40;85.60;;;;;;4978208;28;20698;-65
2023/11/07 02:47:45;;;;;;;0.20;0.20;;;8.40;85.60;;;;;;4978328;28;20046;-65
2023/11/07 02:50:11;;;;;;;0.38;0.25;;;8.40;85.60;;;;;;4979308;28;20066;-65
2023/11/07 02:52:38;;;;;;;0.30;0.30;;;8.40;85.70;;;;;;4976193;28;20041;-65
2023/11/07 02:55:04;;;;;;;0.60;0.20;;;8.40;85.60;;;;;;4978109;28;20034;-65
2023/11/07 02:57:30;;;;;;;0.20;0.20;;;8.40;85.50;;;;;;4978719;28;20038;-65
2023/11/07 02:59:55;;;;;;;0.95;0.22;;;8.40;85.60;;;;;;4978431;28;20599;-65
2023/11/07 03:02:21;;;;;;;0.38;0.30;;;8.40;85.60;;;;;;4977982;28;20050;-65
2023/11/07 03:04:46;;;;;;;0.93;0.20;;;8.40;85.60;;;;;;4976772;28;20482;-65
2023/11/07 03:07:12;;;;;;;0.20;0.20;;;8.50;85.70;;;;;;4959511;28;20410;-65
2023/11/07 03:09:37;;;;;;;2.92;0.40;;;8.50;85.70;;;;;;4978738;28;20570;-65
2023/11/07 03:12:03;;;;;;;0.60;0.38;;;8.50;85.70;;;;;;4978540;28;20566;-65
2023/11/07 03:14:29;;;;;;;0.25;0.25;;;8.50;85.60;;;;;;4977673;28;20126;-66
2023/11/07 03:16:55;;;;;;;0.57;0.30;;;8.50;85.60;;;;;;4978095;28;20073;-65
2023/11/07 03:19:21;;;;;;;0.55;0.30;;;8.50;85.60;;;;;;4977414;28;20089;-65
2023/11/07 03:21:47;;;;;;;1.08;0.40;;;8.50;85.50;;;;;;4977489;28;20581;-65
2023/11/07 03:24:12;;;;;;;2.10;0.30;;;8.50;85.50;;;;;;4978480;28;20100;-65
2023/11/07 03:26:39;;;;;;;1.08;0.13;;;8.60;85.60;;;;;;4977556;28;20173;-65
2023/11/07 03:29:04;;;;;;;0.22;0.20;;;8.60;85.50;;;;;;4978291;28;20081;-65
2023/11/07 03:31:31;;;;;;;0.35;0.25;;;8.60;85.40;;;;;;4978494;28;20441;-65
2023/11/07 03:33:56;;;;;;;0.20;0.20;;;8.70;85.20;;;;;;4978514;28;20608;-65
2023/11/07 03:36:22;;;;;;;0.50;0.20;;;8.70;85.20;;;;;;4980842;28;20121;-65
2023/11/07 03:38:48;;;;;;;0.63;0.30;;;8.60;85.00;;;;;;4980974;28;20363;-65
2023/11/07 03:41:13;;;;;;;0.43;0.20;;;8.70;84.80;;;;;;4983056;28;20118;-65
2023/11/07 03:43:40;;;;;;;1.60;0.40;;;8.70;84.80;;;;;;4980586;28;20035;-65
2023/11/07 03:46:06;;;;;;;0.30;0.30;;;8.60;84.60;;;;;;4981593;28;20035;-65
2023/11/07 03:48:31;;;;;;;0.30;0.30;;;8.60;84.60;;;;;;4980837;28;20042;-65
2023/11/07 03:50:57;;;;;;;0.55;0.30;;;8.60;84.60;;;;;;4981612;28;20121;-65
2023/11/07 03:53:23;;;;;;;1.75;0.40;;;8.60;84.70;;;;;;4981250;28;20034;-65
2023/11/07 03:55:49;;;;;;;1.13;0.38;;;8.60;84.60;;;;;;4981062;28;20352;-65
2023/11/07 03:58:14;;;;;;;0.52;0.20;;;8.50;84.40;;;;;;4982753;28;20038;-65
2023/11/07 04:00:45;;;;;;;1.75;0.40;;;8.50;84.50;;;;;;4980639;28;20029;-65
2023/11/07 04:03:10;;;;;;;1.00;0.50;;;8.50;84.40;;;;;;4980984;28;20077;-65
2023/11/07 04:05:37;;;;;;;2.03;0.60;;;8.50;84.20;;;;;;4980144;28;20046;-65
2023/11/07 04:08:03;;;;;;;0.40;0.40;;;8.50;83.90;;;;;;4963935;28;20138;-65
2023/11/07 04:10:29;;;;;;;0.30;0.30;;;8.40;83.60;;;;;;4981295;28;20034;-65
2023/11/07 04:12:55;;;;;;;0.98;0.40;;;8.40;83.70;;;;;;4981035;28;20027;-65
2023/11/07 04:15:22;;;;;;;0.40;0.40;;;8.30;83.60;;;;;;4981729;28;20035;-64
2023/11/07 04:17:48;;;;;;;0.77;0.45;;;8.30;83.60;;;;;;4980391;28;20062;-65
2023/11/07 04:20:16;;;;;;;0.35;0.32;;;8.20;83.30;;;;;;4979828;28;20065;-65
2023/11/07 04:22:43;;;;;;;1.65;0.40;;;8.10;83.30;;;;;;4980576;28;20069;-65
2023/11/07 04:25:10;;;;;;;0.45;0.40;;;8.10;83.10;;;;;;4980473;28;20031;-65
2023/11/07 04:27:36;;;;;;;0.43;0.40;;;8.10;83.00;;;;;;4980268;28;20557;-65
2023/11/07 04:30:02;;;;;;;0.40;0.35;;;8.00;82.70;;;;;;4980986;28;20031;-65
2023/11/07 04:32:27;;;;;;;0.60;0.35;;;8.00;82.60;;;;;;4981103;28;20498;-65
2023/11/07 04:34:53;;;;;;;0.70;0.40;;;7.90;82.60;;;;;;4980251;28;20031;-65
2023/11/07 04:37:19;;;;;;;1.75;0.30;;;7.90;82.60;;;;;;4969986;28;20513;-65
2023/11/07 04:39:44;;;;;;;0.50;0.50;;;7.80;82.60;;;;;;4980061;28;20027;-65
2023/11/07 04:42:10;;;;;;;1.63;0.52;;;7.80;82.40;;;;;;4981180;28;20271;-65
2023/11/07 04:44:36;;;;;;;1.05;0.70;;;7.70;82.20;;;;;;4979906;28;20430;-65
2023/11/07 04:47:02;;;;;;;0.70;0.70;;;7.60;82.20;;;;;;4978876;28;20402;-65
2023/11/07 04:49:29;;;;;;;1.35;0.70;;;7.60;82.40;;;;;;4981581;28;20040;-65
2023/11/07 04:51:56;;;;;;;0.85;0.60;;;7.40;82.70;;;;;;4964014;28;20455;-65
2023/11/07 04:54:23;;;;;;;0.80;0.80;;;7.30;83.00;;;;;;4981123;28;20344;-65
2023/11/07 04:56:50;;;;;;;0.95;0.80;;;7.30;83.40;;;;;;4979276;28;20081;-65
2023/11/07 04:59:15;;;;;;;0.98;0.88;;;7.20;83.40;;;;;;4980242;28;20046;-65
2023/11/07 05:01:45;;;;;;;2.03;1.02;;;7.20;83.30;;;;;;4979827;28;20038;-65
2023/11/07 05:04:10;;;;;;;1.15;0.85;;;7.20;83.40;;;;;;4980304;28;20088;-65
2023/11/07 05:06:36;;;;;;;2.65;0.70;;;7.20;83.20;;;;;;4980396;28;20183;-65
2023/11/07 05:09:07;;;;;;;0.63;0.63;;;7.10;83.10;;;;;;4980422;28;20034;-65
2023/11/07 05:11:33;;;;;;;1.00;0.88;;;7.10;83.20;;;;;;4981281;28;20042;-65
2023/11/07 05:13:58;;;;;;;0.77;0.73;;;7.10;82.90;;;;;;4979870;28;20066;-64
2023/11/07 05:16:24;;;;;;;1.40;0.90;;;7.00;83.60;;;;;;4979431;28;20041;-66
2023/11/07 05:18:50;;;;;;;1.10;0.80;;;7.00;82.60;;;;;;4979900;28;20049;-65
2023/11/07 05:21:16;;;;;;;1.83;0.90;;;6.90;82.40;;;;;;4980476;28;20648;-65
2023/11/07 05:23:41;;;;;;;1.13;1.10;;;6.90;82.70;;;;;;4963551;28;20113;-65
2023/11/07 05:26:07;;;;;;;4.57;3.03;;;6.80;82.90;;;;;;4979858;28;20474;-65
2023/11/07 05:28:32;;;;;;;6.15;5.03;;;6.70;82.80;;;;;;4979247;28;20042;-65
2023/11/07 05:30:58;;;;;;;8.15;5.88;;;6.70;82.90;;;;;;4979835;28;20041;-65
2023/11/07 05:33:23;;;;;;;9.27;5.80;;;6.70;83.10;;;;;;4979983;28;20073;-65
2023/11/07 05:35:49;;;;;;;10.43;7.22;;;6.60;82.80;;;;;;4979286;28;20335;-65
2023/11/07 05:38:15;;;;;;;31.77;20.45;;;6.60;83.00;;;;;;4979500;28;20112;-65
2023/11/07 05:40:41;;;;;;;22.42;14.50;;;6.50;83.00;;;;;;4980032;28;20247;-65
2023/11/07 05:43:08;;;;;;;18.58;11.93;;;6.50;83.00;;;;;;4979525;28;20033;-65
2023/11/07 05:45:33;;;;;;;16.08;10.57;;;6.40;83.00;;;;;;4978641;28;20026;-65
2023/11/07 05:47:59;;;;;;;9.85;6.97;;;6.30;83.00;;;;;;4978986;28;20039;-65
2023/11/07 05:50:25;;;;;;;6.18;4.50;;;6.30;83.00;;;;;;4978126;28;20031;-65
2023/11/07 05:52:52;;;;;;;4.38;3.10;;;6.30;83.00;;;;;;4978758;28;20030;-65
2023/11/07 05:55:17;;;;;;;3.25;2.30;;;6.20;83.00;;;;;;4978744;28;20093;-65
2023/11/07 05:57:43;;;;;;;2.53;2.25;;;6.20;83.20;;;;;;4979205;28;20030;-65
2023/11/07 06:00:10;;;;;;;2.40;1.90;;;6.10;83.50;;;;;;4978725;28;20049;-65
2023/11/07 06:02:37;;;;;;;2.95;2.10;;;6.10;83.80;;;;;;4978667;28;20495;-66
2023/11/07 06:05:03;;;;;;;3.92;1.90;;;6.00;84.00;;;;;;4978710;28;20062;-65
2023/11/07 06:07:29;;;;;;;2.38;1.90;;;6.10;84.00;;;;;;4978630;28;20038;-65
2023/11/07 06:09:55;;;;;;;3.22;1.90;;;6.10;84.10;;;;;;4979393;28;20033;-65
2023/11/07 06:12:20;;;;;;;2.38;2.17;;;6.10;84.00;;;;;;4977771;28;20038;-65
2023/11/07 06:14:46;;;;;;;3.25;2.50;;;6.10;83.90;;;;;;4979132;28;20581;-65
2023/11/07 06:17:12;;;;;;;4.00;2.92;;;6.00;83.90;;;;;;4978694;28;20035;-65
2023/11/07 06:19:38;;;;;;;2.95;2.67;;;6.10;83.80;;;;;;4978299;28;20510;-65
2023/11/07 06:22:04;;;;;;;4.10;3.35;;;6.10;83.80;;;;;;4978704;28;20034;-65
2023/11/07 06:24:29;;;;;;;3.30;3.00;;;6.00;83.80;;;;;;4978252;28;20075;-65
2023/11/07 06:26:55;;;;;;;4.32;2.97;;;6.10;83.90;;;;;;4978455;28;20035;-65
2023/11/07 06:29:21;;;;;;;3.92;3.00;;;6.00;83.50;;;;;;4978294;28;20056;-65
2023/11/07 06:31:46;;;;;;;3.75;3.03;;;6.00;83.50;;;;;;4979927;28;20446;-65
2023/11/07 06:34:14;;;;;;;4.97;3.00;;;6.00;83.50;;;;;;4978507;28;20420;-65
2023/11/07 06:36:40;;;;;;;4.30;3.25;;;5.90;83.50;;;;;;4977517;28;20518;-65
2023/11/07 06:39:06;;;;;;;6.00;2.58;;;5.90;84.00;;;;;;4978510;28;20038;-65
2023/11/07 06:41:31;;;;;;;6.85;2.90;;;5.90;84.90;;;;;;4978300;28;20049;-65
2023/11/07 06:43:57;;;;;;;4.82;1.52;;;5.90;86.00;;;;;;4978068;28;20070;-65
2023/11/07 06:46:23;;;;;;;7.80;2.15;;;6.00;87.30;;;;;;4977778;28;20529;-65
2023/11/07 06:48:49;;;;;;;6.72;2.65;;;6.10;88.30;;;;;;4978622;28;20045;-65
2023/11/07 06:51:17;;;;;;;3.97;2.08;;;6.20;88.90;;;;;;4978307;28;20039;-65
2023/11/07 06:53:43;;;;;;;8.45;3.40;;;6.30;89.40;;;;;;4976215;28;20069;-65
2023/11/07 06:56:09;;;;;;;3.88;2.58;;;6.50;89.80;;;;;;4977917;28;20062;-65
2023/11/07 06:58:35;;;;;;;4.75;1.10;;;6.60;90.00;;;;;;4977384;28;20101;-65
2023/11/07 07:01:01;;;;;;;5.75;2.88;;;6.70;90.00;;;;;;4977966;28;20032;-65
2023/11/07 07:03:27;;;;;;;3.67;3.38;;;6.90;90.10;;;;;;4977539;28;20101;-65
2023/11/07 07:05:53;;;;;;;3.88;2.60;;;7.00;90.00;;;;;;4978670;28;20504;-65
2023/11/07 07:08:19;;;;;;;4.18;2.90;;;7.10;90.00;;;;;;4977075;28;20050;-65
2023/11/07 07:10:45;;;;;;;3.25;2.03;;;7.30;90.00;;;;;;4975571;28;20046;-65
2023/11/07 07:13:11;;;;;;;4.50;2.70;;;7.40;90.00;;;;;;4977600;28;20031;-65
2023/11/07 07:15:41;;;;;;;2.13;1.92;;;7.50;89.90;;;;;;4978255;28;20034;-65
2023/11/07 07:18:07;;;;;;;3.08;2.45;;;7.60;90.00;;;;;;4977801;28;20035;-65
2023/11/07 07:20:36;;;;;;;2.67;2.47;;;7.80;90.00;;;;;;4977260;28;20306;-65
2023/11/07 07:23:08;;;;;;;1.38;1.27;;;7.80;89.90;;;;;;4978520;28;20023;-65
2023/11/07 07:25:36;;;;;;;2.05;1.50;;;8.00;89.90;;;;;;4976581;28;20031;-65
2023/11/07 07:28:04;;;;;;;2.13;0.73;;;8.10;89.60;;;;;;4978404;28;20406;-65
2023/11/07 07:30:32;;;;;;;1.45;0.88;;;8.20;89.40;;;;;;4977265;28;20470;-65
2023/11/07 07:32:59;;;;;;;3.10;1.13;;;8.30;89.30;;;;;;4978211;28;20030;-65
2023/11/07 07:35:29;;;;;;;2.67;0.88;;;8.40;89.30;;;;;;4977572;28;20601;-65
2023/11/07 07:37:56;;;;;;;2.47;1.00;;;8.50;89.00;;;;;;4977992;28;20057;-65
2023/11/07 07:40:28;;;;;;;1.90;1.17;;;8.50;88.90;;;;;;4978386;28;20117;-65
2023/11/07 07:42:58;;;;;;;1.17;0.70;;;8.60;88.70;;;;;;4977989;28;20486;-65
2023/11/07 07:45:25;;;;;;;8.60;5.10;;;8.70;88.50;;;;;;4977694;28;20039;-65
2023/11/07 07:47:51;;;;;;;40.45;22.42;;;8.80;88.20;;;;;;4977602;28;20034;-65
2023/11/07 07:50:18;;;;;;;39.60;23.42;;;8.90;88.00;;;;;;4977669;28;20031;-65
2023/11/07 07:52:44;;;;;;;10.48;8.32;;;9.00;87.70;;;;;;4977487;28;20055;-65
2023/11/07 07:55:10;;;;;;;4.38;2.83;;;9.10;87.40;;;;;;4966958;28;20031;-65
2023/11/07 07:57:37;;;;;;;4.07;1.73;;;9.20;87.30;;;;;;4977540;28;20042;-65
2023/11/07 08:00:11;;;;;;;1.80;1.33;;;9.20;87.10;;;;;;4977730;28;20117;-65
2023/11/07 08:02:40;;;;;;;1.27;0.90;;;9.30;86.80;;;;;;4977005;28;20042;-65
2023/11/07 08:05:06;;;;;;;0.98;0.85;;;9.30;86.60;;;;;;4959625;28;20407;-65
2023/11/07 08:07:33;;;;;;;1.60;1.13;;;9.40;86.50;;;;;;4977514;28;20155;-64
2023/11/07 08:09:59;;;;;;;1.05;0.90;;;9.40;86.40;;;;;;4977502;28;20031;-65
2023/11/07 08:12:24;;;;;;;2.33;1.20;;;9.50;86.40;;;;;;4977456;28;20081;-64
2023/11/07 08:14:50;;;;;;;3.47;0.90;;;9.50;86.20;;;;;;4977401;28;20512;-65
2023/11/07 08:17:16;;;;;;;1.13;0.75;;;9.60;86.20;;;;;;4977546;28;20042;-65
2023/11/07 08:19:41;;;;;;;1.95;1.00;;;9.70;86.20;;;;;;4977392;28;20430;-65
2023/11/07 08:22:07;;;;;;;1.85;0.80;;;9.70;86.10;;;;;;4979218;28;20109;-65
2023/11/07 08:24:33;;;;;;;1.17;0.60;;;9.80;86.00;;;;;;4980647;28;20526;-65
2023/11/07 08:26:59;;;;;;;1.77;0.52;;;9.90;85.90;;;;;;4981007;28;20121;-65
2023/11/07 08:29:26;;;;;;;0.98;0.60;;;10.00;85.70;;;;;;4981642;28;20430;-65
2023/11/07 08:31:52;;;;;;;1.10;0.60;;;10.00;85.50;;;;;;4980969;28;20046;-65
2023/11/07 08:34:20;;;;;;;1.48;0.70;;;10.10;85.30;;;;;;4981329;28;20030;-65
2023/11/07 08:36:47;;;;;;;1.00;0.60;;;10.20;85.10;;;;;;4980220;28;20461;-65
2023/11/07 08:39:24;;;;;;;1.80;0.80;;;10.30;84.80;;;;;;4981052;28;20102;-65
2023/11/07 08:41:56;;;;;;;1.60;0.60;;;10.30;84.50;;;;;;4980871;28;20058;-65
2023/11/07 08:44:22;;;;;;;0.63;0.60;;;10.40;84.00;;;;;;4981256;28;20586;-65
2023/11/07 08:46:48;;;;;;;1.30;0.60;;;10.50;83.80;;;;;;4981072;28;20038;-64
2023/11/07 08:49:17;;;;;;;0.80;0.70;;;10.60;83.40;;;;;;4981435;28;20517;-64
2023/11/07 08:51:43;;;;;;;1.35;0.70;;;10.60;83.10;;;;;;4981243;28;20162;-64
2023/11/07 08:54:09;;;;;;;2.30;0.75;;;10.70;82.80;;;;;;4981539;28;20110;-64
2023/11/07 08:56:35;;;;;;;1.65;0.85;;;10.70;82.60;;;;;;4980182;28;20102;-64
2023/11/07 08:59:01;;;;;;;0.63;0.50;;;10.70;82.20;;;;;;4980849;28;20047;-64
2023/11/07 09:01:27;;;;;;;2.85;1.00;;;10.80;82.10;;;;;;4979458;28;20383;-64
2023/11/07 09:03:54;;;;;;;1.17;0.65;;;10.90;82.20;;;;;;4982573;28;20126;-64
2023/11/07 09:06:22;;;;;;;1.65;0.60;;;10.90;82.00;;;;;;4981109;28;20491;-64
2023/11/07 09:08:48;;;;;;;1.10;0.47;;;10.90;81.50;;;;;;4981433;28;20038;-65
2023/11/07 09:11:13;;;;;;;0.98;0.80;;;11.00;81.30;;;;;;4981224;28;20054;-64
2023/11/07 09:13:39;;;;;;;3.70;0.50;;;11.00;81.10;;;;;;4981918;28;20038;-64
2023/11/07 09:16:07;;;;;;;0.50;0.50;;;11.10;80.80;;;;;;4981265;28;20050;-64
2023/11/07 09:18:32;;;;;;;1.90;0.50;;;11.10;80.30;;;;;;4980035;28;20047;-65
2023/11/07 09:20:58;;;;;;;1.75;0.70;;;11.10;80.00;;;;;;4980767;28;20544;-64
2023/11/07 09:23:23;;;;;;;1.67;0.57;;;11.10;79.90;;;;;;4981698;28;20133;-65
2023/11/07 09:25:51;;;;;;;1.00;0.50;;;11.20;79.60;;;;;;4981012;28;20031;-64
2023/11/07 09:28:16;;;;;;;2.42;0.50;;;11.20;79.90;;;;;;4981206;28;20030;-65
2023/11/07 09:30:42;;;;;;;2.10;0.80;;;11.20;79.70;;;;;;4979461;28;20779;-65
2023/11/07 09:33:09;;;;;;;3.00;0.65;;;11.30;79.80;;;;;;4981584;28;20613;-64
2023/11/07 09:35:35;;;;;;;0.47;0.40;;;11.40;79.50;;;;;;4980728;28;20362;-64
2023/11/07 09:38:03;;;;;;;1.05;0.47;;;11.30;79.40;;;;;;4982149;28;20384;-65
2023/11/07 09:40:29;;;;;;;0.73;0.47;;;11.40;79.40;;;;;;4963449;28;20062;-64
2023/11/07 09:42:55;;;;;;;1.00;0.52;;;11.40;79.10;;;;;;4980908;28;20027;-65
2023/11/07 09:45:22;;;;;;;0.98;0.50;;;11.50;77.80;;;;;;4980398;28;20649;-65
2023/11/07 09:47:49;;;;;;;0.88;0.43;;;11.50;77.70;;;;;;4980593;28;20057;-65
2023/11/07 09:50:19;;;;;;;0.57;0.55;;;11.50;77.80;;;;;;4980826;28;20096;-64
2023/11/07 09:52:47;;;;;;;2.58;0.60;;;11.50;77.60;;;;;;4980575;28;20039;-65
2023/11/07 09:55:16;;;;;;;2.50;0.50;;;11.60;77.80;;;;;;4981172;28;20034;-64
2023/11/07 09:57:57;;;;;;;0.80;0.50;;;11.60;78.20;;;;;;4980424;28;20031;-65
2023/11/07 10:00:25;;;;;;;1.17;0.57;;;11.60;77.50;;;;;;4980459;28;20053;-64
2023/11/07 10:02:52;;;;;;;1.67;0.50;;;11.70;77.20;;;;;;4980064;28;20042;-64
2023/11/07 10:05:20;;;;;;;0.60;0.55;;;11.70;77.30;;;;;;4980391;28;20553;-65
2023/11/07 10:07:49;;;;;;;0.75;0.52;;;11.70;77.50;;;;;;4979715;28;20503;-65
2023/11/07 10:10:16;;;;;;;1.60;0.70;;;11.70;77.70;;;;;;4979954;28;20406;-65
2023/11/07 10:12:43;;;;;;;2.63;0.50;;;11.80;77.50;;;;;;4979571;28;20110;-65
2023/11/07 10:15:16;;;;;;;1.92;0.80;;;11.80;77.10;;;;;;4981004;28;20271;-65
2023/11/07 10:18:16;;;;;;;1.55;0.60;;;11.90;76.30;;;;;;4979637;28;20379;-65
2023/11/07 10:20:49;;;;;;;2.50;1.27;;;11.90;75.80;;;;;;4979484;28;20046;-64
2023/11/07 10:23:15;;;;;;;1.30;0.90;;;11.90;75.20;;;;;;4980499;28;20122;-65
2023/11/07 10:25:41;;;;;;;0.85;0.70;;;11.90;75.30;;;;;;4979585;28;20177;-64
2023/11/07 10:28:08;;;;;;;1.13;0.60;;;11.80;75.10;;;;;;4979739;28;20023;-65
2023/11/07 10:30:47;;;;;;;0.65;0.57;;;11.90;75.40;;;;;;4979604;28;20196;-65
2023/11/07 10:33:24;;;;;;;0.90;0.60;;;11.80;74.90;;;;;;4980064;28;20125;-65
2023/11/07 10:35:52;;;;;;;0.80;0.50;;;11.80;74.20;;;;;;4979373;28;20549;-65
2023/11/07 10:38:18;;;;;;;0.98;0.55;;;11.90;75.10;;;;;;4979836;28;20039;-65
2023/11/07 10:40:44;;;;;;;1.50;0.55;;;11.80;75.30;;;;;;4979203;28;20027;-65
2023/11/07 10:43:10;;;;;;;1.05;0.50;;;11.90;75.40;;;;;;4979754;28;20031;-65
2023/11/07 10:45:40;;;;;;;1.30;0.40;;;11.90;74.90;;;;;;4979622;28;20513;-65
2023/11/07 10:48:08;;;;;;;0.65;0.50;;;11.90;73.80;;;;;;4979941;28;20125;-65
2023/11/07 10:50:35;;;;;;;0.77;0.40;;;11.90;74.00;;;;;;4979347;28;20026;-65
2023/11/07 10:53:01;;;;;;;1.85;0.40;;;12.00;73.50;;;;;;4979885;28;20019;-65
2023/11/07 10:55:27;;;;;;;1.63;0.40;;;11.90;73.60;;;;;;4979367;28;20043;-65
2023/11/07 10:58:01;;;;;;;1.25;0.40;;;11.90;73.50;;;;;;4979333;28;20406;-64
2023/11/07 11:00:30;;;;;;;1.88;0.30;;;11.90;73.30;;;;;;4979503;28;20100;-64
2023/11/07 11:02:57;;;;;;;0.73;0.30;;;11.80;73.10;;;;;;4968906;28;20086;-65
2023/11/07 11:05:24;;;;;;;0.98;0.45;;;11.80;72.90;;;;;;4979486;28;20049;-65
2023/11/07 11:07:52;;;;;;;0.38;0.38;;;11.80;73.50;;;;;;4978675;28;20478;-65
2023/11/07 11:10:23;;;;;;;0.28;0.20;;;11.80;73.20;;;;;;4978945;28;20125;-65
2023/11/07 11:12:50;;;;;;;0.82;0.30;;;11.80;73.10;;;;;;4978559;28;20041;-65
2023/11/07 11:15:18;;;;;;;1.58;0.35;;;11.80;73.30;;;;;;4979676;28;20038;-65
2023/11/07 11:18:09;;;;;;;1.75;0.30;;;11.90;73.00;;;;;;4979296;28;20042;-65
2023/11/07 11:20:56;;;;;;;0.70;0.40;;;11.90;72.30;;;;;;4974197;28;20055;-65
2023/11/07 11:23:33;;;;;;;1.20;0.30;;;11.90;73.20;;;;;;4979372;28;20049;-64
2023/11/07 11:26:17;;;;;;;0.90;0.40;;;12.00;73.40;;;;;;4979293;28;20027;-65
2023/11/07 11:28:43;;;;;;;1.38;0.50;;;12.00;73.10;;;;;;4978610;28;20038;-65
2023/11/07 11:31:18;;;;;;;0.70;0.50;;;12.00;73.20;;;;;;4979110;28;20384;-65
2023/11/07 11:33:45;;;;;;;1.17;0.30;;;12.10;72.60;;;;;;4979473;28;20027;-65
2023/11/07 11:36:38;;;;;;;0.55;0.35;;;12.10;73.00;;;;;;4980571;28;20026;-65
2023/11/07 11:39:26;;;;;;;1.30;0.50;;;12.10;71.80;;;;;;4979830;28;20039;-64
2023/11/07 11:42:01;;;;;;;0.30;0.30;;;12.10;70.60;;;;;;4979121;28;20720;-65
2023/11/07 11:44:26;;;;;;;0.47;0.40;;;12.10;71.70;;;;;;4979826;28;20042;-64
2023/11/07 11:46:55;;;;;;;1.65;0.50;;;12.10;72.10;;;;;;4977622;28;20035;-65
2023/11/07 11:49:23;;;;;;;0.55;0.40;;;12.10;71.90;;;;;;4978734;28;20038;-65
2023/11/07 11:51:53;;;;;;;2.33;0.40;;;12.00;72.00;;;;;;4978597;28;20072;-65
2023/11/07 11:54:24;;;;;;;0.90;0.50;;;12.00;72.10;;;;;;4979322;28;20299;-65
2023/11/07 11:57:00;;;;;;;0.60;0.50;;;12.00;72.10;;;;;;4981042;28;20073;-65
2023/11/07 11:59:30;;;;;;;0.75;0.30;;;12.00;71.90;;;;;;4983103;28;20057;-65
2023/11/07 12:02:02;;;;;;;2.47;0.30;;;11.90;71.90;;;;;;4982949;28;20053;-65
2023/11/07 12:04:37;;;;;;;0.38;0.30;;;12.00;72.00;;;;;;4983024;28;20057;-65
2023/11/07 12:07:14;;;;;;;1.23;0.40;;;11.90;72.10;;;;;;4982638;28;20042;-65
2023/11/07 12:09:42;;;;;;;1.02;0.38;;;11.90;72.00;;;;;;4981742;28;20409;-65
2023/11/07 12:12:09;;;;;;;0.55;0.45;;;12.00;71.80;;;;;;4983671;28;20030;-65
2023/11/07 12:14:53;;;;;;;0.38;0.38;;;11.90;72.50;;;;;;4982879;28;20106;-65
2023/11/07 12:17:21;;;;;;;0.85;0.30;;;12.00;72.10;;;;;;4981598;28;20066;-65
2023/11/07 12:19:48;;;;;;;0.63;0.30;;;12.00;72.60;;;;;;4983064;28;20593;-65
2023/11/07 12:22:14;;;;;;;1.38;0.38;;;12.10;72.50;;;;;;4982813;28;20039;-65
2023/11/07 12:24:40;;;;;;;0.82;0.50;;;12.10;72.70;;;;;;4982247;28;20044;-65
2023/11/07 12:27:06;;;;;;;0.40;0.40;;;12.10;72.60;;;;;;4982803;28;20030;-65
2023/11/07 12:29:36;;;;;;;0.57;0.45;;;12.10;72.60;;;;;;4982173;28;20383;-65
2023/11/07 12:32:06;;;;;;;1.48;0.50;;;12.20;72.30;;;;;;4982320;28;20564;-65
2023/11/07 12:34:33;;;;;;;0.93;0.30;;;12.30;72.40;;;;;;4981898;28;20034;-65
2023/11/07 12:37:07;;;;;;;0.82;0.35;;;12.30;71.50;;;;;;4981137;28;20041;-65
2023/11/07 12:39:33;;;;;;;0.80;0.38;;;12.30;71.40;;;;;;4982231;28;20046;-65
2023/11/07 12:41:59;;;;;;;1.65;0.45;;;12.30;72.60;;;;;;4982035;28;20437;-65
2023/11/07 12:44:27;;;;;;;1.02;0.45;;;12.30;71.60;;;;;;4981883;28;20042;-65
2023/11/07 12:46:53;;;;;;;0.55;0.40;;;12.40;71.10;;;;;;4981162;28;20077;-65
2023/11/07 12:49:19;;;;;;;0.57;0.40;;;12.50;70.90;;;;;;4981400;28;20038;-65
2023/11/07 12:51:47;;;;;;;1.05;0.40;;;12.50;70.80;;;;;;4982476;28;20606;-65
2023/11/07 12:54:13;;;;;;;0.90;0.32;;;12.60;71.10;;;;;;4981865;28;20037;-65